Airfield :
LOGIN :

Register | Disclaimer

   EN    FR    IT 

 










Legend :    VFR   Marginal VFR   IFR   Intensive IFR   Very Intensive IFR
Visi :
Ceiling :
>= 8 km
>= 3000ft
5 to 8 km
1000 to 3000 ft
1500m to 5 km
500 to 1000 ft
800 to 1500m
200 to 500 ft
< 800m
< 200 ft
Symbols :   Thunderstorms  Fog  Heavy snow  Heavy precipitations  Wind > 20 kt
SIGMETs :     Misc.  Thunderstorms  Icing  Turbulence  Mountain Waves  Volcanic Ashes







- Airport Elevation : 17 ft
- IATA code : CPH


EKCH - København - Kastrup (Copenhagen)

CURRENT METAR :
  • 200820Z 27007KT 0900 R22L/P1500D R04L/P1500N R12/P1500N FZFG VV002 M01/M01 Q1018 R04L/320160 R04R/310155 R12/350159 BECMG 3000 SCT005

EXPIRED METARs :
  • 200750Z 24009KT 1300 R22L/P1500N R04L/P1500N R12/P1500N BR OVC002 M01/M01 Q1018 R04L/320160 R04R/310155 R12/350159 BECMG 3000 SCT005
  • 200720Z 24006KT 0500 R22L/P1500N R04L/P1500N R12/P1500D FZFG VV001 M01/M02 Q1018 R04L/320160 R04R/310155 R12/350159 BECMG 3000 SCT005
  • 200650Z 24007KT 1100 R22L/P1500N R04L/P1500N R12/P1500N BR OVC001 M01/M02 Q1017 R04L/320160 R04R/310155 R12/350159 NOSIG
  • 200620Z 24008KT 1800 BR OVC002 M01/M01 Q1017 R04L/320160 R04R/310155 R12/350159 NOSIG
  • 200550Z 24009KT 2000 BR OVC003 M01/M01 Q1017 R04L/320160 R04R/310155 R12/350159 NOSIG

TAF AMD TAF EKCH
Valid from the 20 at 06:00 until the 21 at 06:00 UTC


200536Z 2006/2106 26008KT 2000 BR BKN003
TEMPO 2006/2008 7000 NSW SCT005
BECMG 2008/2010 8000 NSW FEW005
TEMPO 2015/2017 BKN010
PROB40 2017/2102 3000 -SHSNRA BKN010 BKN020TCU
TEMPO 2102/2106 2000 BR BKN004
No reported NOTAMs for that airfield.



MET'MAP, your aeronautical weather chart ! - Copyright ORBIFLY December 2007 - Disclaimer

ORBIFLY MET'MAP TEAM :

Programming & Development : Alexandra Zaïnal
Concept & Development : Baudouin d'Aumeries
Co-Development & Prog : Marc-Olivier Méhu
Technical & hardware support : Manuel Goepfert

Contact : metmap@orbifly.com




SOURCES & CREDITS :

   NOAA